Bethel Heights, Arkansas
Current Conditions -  °F | °C
As of 8:48 PM on Thursday 23 Oct 2014 (Local Time) from KASG Reporting Station
Overcast Overcast  
Wind Chill: 59°   Ceiling: 4800
Heat Index: 59°   Visibility: 10mi
Dew Point: 55°   Wind: 0mph
Humidity: 88%   Direction: NA
Pressure: 30.14"   Gusts: NA
Location:  36.1771°N, 94.0897°W
Report Text: KASG 240148Z 00000KT 10SM OVC048 15/13 A3014 RMK LAST
Loading
Personal Weather Stations






























Interactive Weather Map
Tropical Storm Tracking
New forecast layout! Learn more

10-Day Weather Forecast

Advertisements
Track Severe Weather on mobile